createdAt,value
2019-03-28T00:02:14.031Z,98888.44
2019-03-28T00:04:40.885Z,98887.81
2019-03-28T00:07:08.052Z,98886.16
2019-03-28T00:09:34.626Z,98877.98
2019-03-28T00:12:01.255Z,98882.82
2019-03-28T00:14:27.962Z,98879.48
2019-03-28T00:16:54.595Z,98877.74
2019-03-28T00:19:21.483Z,98882.97
2019-03-28T00:21:51.841Z,98876.30
2019-03-28T00:24:22.277Z,98886.13
2019-03-28T00:26:50.620Z,98882.20
2019-03-28T00:29:20.648Z,98882.01
2019-03-28T00:31:48.995Z,98886.39
2019-03-28T00:34:17.896Z,98879.03
2019-03-28T00:36:44.654Z,98875.02
2019-03-28T00:39:11.239Z,98868.91
2019-03-28T00:41:40.406Z,98875.03
2019-03-28T00:44:10.946Z,98874.59
2019-03-28T00:49:25.647Z,98874.16
2019-03-28T00:51:53.545Z,98876.99
2019-03-28T00:54:23.376Z,98875.83
2019-03-28T00:56:54.701Z,98871.89
2019-03-28T00:59:22.387Z,98876.47
2019-03-28T01:01:53.130Z,98879.95
2019-03-28T01:04:24.161Z,98873.44
2019-03-28T01:06:51.765Z,98871.64
2019-03-28T01:09:22.625Z,98874.45
2019-03-28T01:11:50.630Z,98868.03
2019-03-28T01:14:22.549Z,98869.12
2019-03-28T01:16:53.223Z,98871.30
2019-03-28T01:19:38.710Z,98868.42
2019-03-28T01:22:06.380Z,98872.40
2019-03-28T01:24:41.388Z,98865.22
2019-03-28T01:27:09.875Z,98862.84
2019-03-28T01:29:40.365Z,98868.05
2019-03-28T01:32:10.126Z,98869.50
2019-03-28T01:34:41.932Z,98862.48
2019-03-28T01:37:13.012Z,98862.64
2019-03-28T01:42:29.372Z,98862.91
2019-03-28T01:44:57.982Z,98861.14
2019-03-28T01:47:28.158Z,98861.95
2019-03-28T01:55:28.797Z,98856.62
2019-03-28T01:57:56.346Z,98857.82
2019-03-28T02:00:23.294Z,98857.87
2019-03-28T02:02:49.994Z,98853.84
2019-03-28T02:05:17.151Z,98852.56
2019-03-28T02:07:43.726Z,98844.27
2019-03-28T02:10:10.398Z,98843.45
2019-03-28T02:12:37.297Z,98843.42
2019-03-28T02:15:04.456Z,98839.75
2019-03-28T02:17:31.331Z,98834.19
2019-03-28T02:20:14.356Z,98828.77
2019-03-28T02:22:45.402Z,98826.27
2019-03-28T02:25:17.271Z,98834.11
2019-03-28T02:27:44.427Z,98834.81
2019-03-28T02:30:16.283Z,98833.03
2019-03-28T02:32:45.733Z,98835.36
2019-03-28T02:35:18.880Z,98843.86
2019-03-28T02:37:48.209Z,98834.82
2019-03-28T02:40:33.650Z,98837.98
2019-03-28T02:43:06.299Z,98830.95
2019-03-28T02:45:38.964Z,98834.99
2019-03-28T02:48:07.797Z,98835.19
2019-03-28T02:50:38.027Z,98832.55
2019-03-28T02:53:06.721Z,98838.69
2019-03-28T02:55:38.054Z,98840.88
2019-03-28T02:58:06.951Z,98843.03
2019-03-28T03:00:40.137Z,98847.45
2019-03-28T03:03:18.778Z,98841.04
2019-03-28T03:05:48.323Z,98838.46
2019-03-28T03:08:17.670Z,98846.91
2019-03-28T03:10:49.211Z,98843.73
2019-03-28T03:13:17.879Z,98848.95
2019-03-28T03:15:48.833Z,98849.12
2019-03-28T03:18:15.522Z,98847.89
2019-03-28T03:20:46.272Z,98855.48
2019-03-28T03:23:16.816Z,98846.17
2019-03-28T03:25:44.438Z,98843.16
2019-03-28T03:28:14.701Z,98844.25
2019-03-28T03:30:44.409Z,98845.87
2019-03-28T03:33:12.548Z,98851.41
2019-03-28T03:35:41.966Z,98850.10
2019-03-28T03:38:11.631Z,98849.75
2019-03-28T03:43:24.843Z,98846.77
2019-03-28T03:45:56.064Z,98848.31
2019-03-28T03:48:27.194Z,98843.95
2019-03-28T03:50:54.953Z,98843.31
2019-03-28T03:53:22.619Z,98851.95
2019-03-28T03:55:51.753Z,98842.47
2019-03-28T03:58:21.327Z,98849.71
2019-03-28T04:00:52.369Z,98847.43
2019-03-28T04:03:19.528Z,98851.77
2019-03-28T04:05:47.887Z,98849.50
2019-03-28T04:08:15.782Z,98849.39
2019-03-28T04:10:46.415Z,98849.38
2019-03-28T04:13:17.296Z,98848.11
2019-03-28T04:15:58.269Z,98849.35
2019-03-28T04:18:30.955Z,98844.83
2019-03-28T04:20:57.333Z,98839.34
2019-03-28T04:23:25.239Z,98841.38
2019-03-28T04:25:52.138Z,98842.20
2019-03-28T04:28:30.717Z,98832.52
2019-03-28T04:30:47.121Z,98836.30
2019-03-28T04:33:13.874Z,98841.63
2019-03-28T04:35:40.914Z,98836.29
2019-03-28T04:38:07.827Z,98842.94
2019-03-28T04:40:34.770Z,98844.93
2019-03-28T04:43:01.661Z,98839.73
2019-03-28T04:45:28.328Z,98840.92
2019-03-28T04:47:55.185Z,98844.55
2019-03-28T04:50:21.854Z,98846.11
2019-03-28T04:52:53.012Z,98842.30
2019-03-28T04:55:20.042Z,98841.83
2019-03-28T04:57:46.634Z,98842.08
2019-03-28T05:00:13.243Z,98843.27
2019-03-28T05:02:39.929Z,98843.34
2019-03-28T05:05:09.799Z,98843.69
2019-03-28T05:07:36.484Z,98841.44
2019-03-28T05:10:03.168Z,98849.02
2019-03-28T05:12:30.227Z,98856.52
2019-03-28T05:14:56.801Z,98852.83
2019-03-28T05:17:23.408Z,98847.41
2019-03-28T05:20:07.782Z,98851.66
2019-03-28T05:22:33.785Z,98859.23
2019-03-28T05:25:00.733Z,98851.30
2019-03-28T05:27:28.813Z,98851.66
2019-03-28T05:29:55.573Z,98854.16
2019-03-28T05:32:22.314Z,98857.59
2019-03-28T05:34:49.215Z,98856.18
2019-03-28T05:37:15.831Z,98854.16
2019-03-28T05:39:42.980Z,98860.30
2019-03-28T05:42:10.299Z,98860.28
2019-03-28T05:44:36.908Z,98871.69
2019-03-28T05:47:03.775Z,98868.59
2019-03-28T05:49:30.368Z,98875.94
2019-03-28T05:51:57.293Z,98873.80
2019-03-28T05:54:23.950Z,98873.37
2019-03-28T05:56:50.578Z,98877.05
2019-03-28T05:59:17.244Z,98874.58
2019-03-28T06:01:43.851Z,98877.70
2019-03-28T06:04:10.815Z,98881.74
2019-03-28T06:06:37.428Z,98879.74
2019-03-28T06:09:04.182Z,98879.62
2019-03-28T06:11:30.854Z,98883.84
2019-03-28T06:13:57.939Z,98880.97
2019-03-28T06:16:24.909Z,98885.13
2019-03-28T06:18:51.859Z,98885.00
2019-03-28T06:21:30.522Z,98890.70
2019-03-28T06:23:49.912Z,98892.51
2019-03-28T06:26:23.498Z,98893.13
2019-03-28T06:28:50.358Z,98893.09
2019-03-28T06:31:19.251Z,98898.07
2019-03-28T06:33:46.772Z,98894.97
2019-03-28T06:36:14.575Z,98894.37
2019-03-28T06:38:44.930Z,98901.42
2019-03-28T06:41:13.391Z,98901.88
2019-03-28T06:43:44.509Z,98908.05
2019-03-28T06:46:15.750Z,98903.20
2019-03-28T06:48:44.787Z,98908.81
2019-03-28T06:51:15.783Z,98905.27
2019-03-28T06:53:43.804Z,98899.53
2019-03-28T06:58:57.377Z,98910.06
2019-03-28T07:01:24.607Z,98904.11
2019-03-28T07:06:40.568Z,98913.53
2019-03-28T07:09:11.015Z,98908.36
2019-03-28T07:11:42.827Z,98910.14
2019-03-28T07:14:09.548Z,98908.10
2019-03-28T07:16:40.133Z,98905.58
2019-03-28T07:19:10.844Z,98907.93
2019-03-28T07:21:41.556Z,98907.16
2019-03-28T07:24:09.215Z,98914.70
2019-03-28T07:26:37.739Z,98916.44
2019-03-28T07:29:08.084Z,98919.83
2019-03-28T07:31:38.899Z,98914.10
2019-03-28T07:34:06.802Z,98917.98
2019-03-28T07:36:33.855Z,98917.92
2019-03-28T07:39:08.800Z,98922.14
2019-03-28T07:41:52.525Z,98922.29
2019-03-28T07:44:26.585Z,98931.76
2019-03-28T07:46:53.525Z,98927.09
2019-03-28T07:49:21.523Z,98928.27
2019-03-28T07:51:52.815Z,98924.13
2019-03-28T07:54:23.599Z,98924.43
2019-03-28T07:56:52.656Z,98933.19
2019-03-28T07:59:22.717Z,98932.20
2019-03-28T08:01:55.272Z,98932.20
2019-03-28T08:04:21.729Z,98927.95
2019-03-28T08:06:50.188Z,98930.02
2019-03-28T08:09:17.711Z,98934.15
2019-03-28T08:11:47.995Z,98930.70
2019-03-28T08:14:13.826Z,98934.29
2019-03-28T08:16:40.463Z,98935.66
2019-03-28T08:19:08.100Z,98929.22
2019-03-28T08:21:38.641Z,98929.17
2019-03-28T08:24:05.421Z,98926.05
2019-03-28T08:26:32.006Z,98926.31
2019-03-28T08:28:59.354Z,98924.54
2019-03-28T08:34:24.081Z,98923.56
2019-03-28T08:36:51.032Z,98924.24
2019-03-28T08:39:17.781Z,98927.86
2019-03-28T08:41:53.955Z,98922.31
2019-03-28T08:44:22.665Z,98926.77
2019-03-28T08:46:49.944Z,98923.33
2019-03-28T08:49:17.390Z,98917.36
2019-03-28T08:51:44.015Z,98914.37
2019-03-28T08:54:10.895Z,98918.65
2019-03-28T08:56:37.725Z,98918.33
2019-03-28T08:59:04.655Z,98914.66
2019-03-28T09:04:15.643Z,98914.05
2019-03-28T09:06:42.615Z,98909.37
2019-03-28T09:09:09.296Z,98903.53
2019-03-28T09:11:36.230Z,98909.27
2019-03-28T09:14:03.871Z,98905.13
2019-03-28T09:21:59.280Z,98899.46
2019-03-28T09:24:26.096Z,98901.59
2019-03-28T09:26:52.860Z,98898.24
2019-03-28T09:29:19.489Z,98895.41
2019-03-28T09:31:46.155Z,98901.68
2019-03-28T09:34:12.778Z,98895.44
2019-03-28T09:36:39.530Z,98891.13
2019-03-28T09:39:06.244Z,98897.12
2019-03-28T09:41:33.204Z,98897.44
2019-03-28T09:44:00.267Z,98886.44
2019-03-28T09:46:27.096Z,98883.08
2019-03-28T09:48:54.006Z,98881.78
2019-03-28T09:51:20.839Z,98881.12
2019-03-28T09:53:47.633Z,98877.14
2019-03-28T09:56:14.308Z,98880.37
2019-03-28T09:58:41.236Z,98879.28
2019-03-28T10:01:07.909Z,98875.50
2019-03-28T10:03:34.509Z,98877.00
2019-03-28T10:06:01.273Z,98875.52
2019-03-28T10:08:28.103Z,98869.53
2019-03-28T10:10:54.785Z,98872.78
2019-03-28T10:13:21.528Z,98863.09
2019-03-28T10:15:48.198Z,98864.59
2019-03-28T10:18:14.783Z,98856.66
2019-03-28T10:20:41.661Z,98860.27
2019-03-28T10:23:08.526Z,98861.08
2019-03-28T10:25:35.121Z,98854.42
2019-03-28T10:28:01.761Z,98855.19
2019-03-28T10:30:29.014Z,98851.92
2019-03-28T10:32:56.078Z,98854.20
2019-03-28T10:35:22.680Z,98851.70
2019-03-28T10:40:21.598Z,98846.77
2019-03-28T10:42:48.379Z,98853.85
2019-03-28T10:45:15.098Z,98847.42
2019-03-28T10:47:41.740Z,98841.92
2019-03-28T10:50:08.369Z,98841.66
2019-03-28T10:52:35.086Z,98842.50
2019-03-28T10:55:02.251Z,98842.83
2019-03-28T10:57:30.362Z,98843.20
2019-03-28T10:59:57.756Z,98839.48
2019-03-28T11:02:24.739Z,98835.28
2019-03-28T11:04:51.537Z,98835.49
2019-03-28T11:07:18.604Z,98835.23
2019-03-28T11:09:45.529Z,98835.80
2019-03-28T11:12:12.096Z,98834.41
2019-03-28T11:14:38.781Z,98830.02
2019-03-28T11:17:05.437Z,98828.03
2019-03-28T11:19:32.026Z,98829.55
2019-03-28T11:21:58.824Z,98821.25
2019-03-28T11:24:25.743Z,98817.97
2019-03-28T11:26:52.470Z,98815.02
2019-03-28T11:29:19.112Z,98819.91
2019-03-28T11:31:50.556Z,98821.19
2019-03-28T11:34:14.781Z,98816.23
2019-03-28T11:36:41.553Z,98814.11
2019-03-28T11:39:09.512Z,98815.45
2019-03-28T11:41:36.144Z,98806.23
2019-03-28T11:44:02.872Z,98810.13
2019-03-28T11:46:30.514Z,98800.94
2019-03-28T11:48:57.237Z,98802.02
2019-03-28T11:51:24.707Z,98796.05
2019-03-28T11:53:52.026Z,98795.24
2019-03-28T11:56:18.939Z,98792.09
2019-03-28T11:58:45.686Z,98792.20
2019-03-28T12:01:13.627Z,98790.87
2019-03-28T12:03:40.308Z,98790.87
2019-03-28T12:06:06.900Z,98782.20
2019-03-28T12:08:35.147Z,98783.61
2019-03-28T12:11:01.961Z,98779.62
2019-03-28T12:13:28.962Z,98779.56
2019-03-28T12:15:55.607Z,98767.24
2019-03-28T12:18:24.903Z,98769.69
2019-03-28T12:23:36.214Z,98765.73
2019-03-28T12:26:03.212Z,98764.52
2019-03-28T12:28:29.927Z,98766.10
2019-03-28T12:30:56.846Z,98755.66
2019-03-28T12:33:23.529Z,98750.34
2019-03-28T12:35:50.426Z,98746.05
2019-03-28T12:40:50.797Z,98734.27
2019-03-28T12:43:17.474Z,98733.63
2019-03-28T12:45:44.318Z,98732.94
2019-03-28T12:48:11.130Z,98729.03
2019-03-28T12:50:37.852Z,98727.07
2019-03-28T12:53:05.177Z,98728.09
2019-03-28T12:55:32.092Z,98720.72
2019-03-28T12:57:58.779Z,98714.30
2019-03-28T13:00:25.485Z,98715.17
2019-03-28T13:03:10.223Z,98708.14
2019-03-28T13:05:37.293Z,98703.05
2019-03-28T13:08:04.073Z,98705.80
2019-03-28T13:10:30.964Z,98700.95
2019-03-28T13:13:00.741Z,98701.66
2019-03-28T13:15:27.681Z,98693.20
2019-03-28T13:17:54.403Z,98691.48
2019-03-28T13:20:22.365Z,98696.67
2019-03-28T13:22:51.917Z,98696.46
2019-03-28T13:25:17.513Z,98690.27
2019-03-28T13:27:44.999Z,98693.69
2019-03-28T13:30:11.631Z,98690.81
2019-03-28T13:32:42.180Z,98686.80
2019-03-28T13:35:06.924Z,98687.51
2019-03-28T13:37:33.677Z,98680.73
2019-03-28T13:40:00.781Z,98684.30
2019-03-28T13:42:27.527Z,98680.14
2019-03-28T13:44:54.458Z,98676.56
2019-03-28T13:47:21.354Z,98675.72
2019-03-28T13:49:48.195Z,98674.77
2019-03-28T13:52:14.879Z,98677.80
2019-03-28T13:54:41.480Z,98673.23
2019-03-28T13:57:08.418Z,98680.16
2019-03-28T13:59:35.525Z,98674.55
2019-03-28T14:02:02.461Z,98669.30
2019-03-28T14:04:34.773Z,98663.11
2019-03-28T14:07:01.420Z,98664.55
2019-03-28T14:09:28.184Z,98662.35
2019-03-28T14:11:55.206Z,98666.31
2019-03-28T14:14:21.938Z,98654.97
2019-03-28T14:16:49.779Z,98656.74
2019-03-28T14:19:17.161Z,98654.33
2019-03-28T14:21:43.805Z,98656.89
2019-03-28T14:24:11.799Z,98656.50
2019-03-28T14:26:40.475Z,98658.39
2019-03-28T14:31:51.537Z,98653.00
2019-03-28T14:34:18.279Z,98651.21
2019-03-28T14:36:45.136Z,98651.71
2019-03-28T14:39:12.154Z,98652.09
2019-03-28T14:41:38.886Z,98648.49
2019-03-28T14:44:08.570Z,98645.70
2019-03-28T14:46:38.513Z,98643.25
2019-03-28T14:49:05.238Z,98647.38
2019-03-28T14:51:32.131Z,98643.55
2019-03-28T14:53:58.766Z,98644.99
2019-03-28T14:56:25.913Z,98646.55
2019-03-28T14:58:52.518Z,98637.47
2019-03-28T15:01:19.425Z,98640.17
2019-03-28T15:03:46.329Z,98630.95
2019-03-28T15:06:13.257Z,98631.52
2019-03-28T15:08:40.256Z,98630.61
2019-03-28T15:11:06.926Z,98628.07
2019-03-28T15:13:33.795Z,98630.36
2019-03-28T15:16:00.633Z,98624.41
2019-03-28T15:18:27.582Z,98626.05
2019-03-28T15:20:54.280Z,98630.66
2019-03-28T15:23:20.980Z,98627.88
2019-03-28T15:25:47.888Z,98633.72
2019-03-28T15:28:14.543Z,98629.97
2019-03-28T15:30:41.195Z,98630.45
2019-03-28T15:33:08.142Z,98620.67
2019-03-28T15:35:35.045Z,98635.04
2019-03-28T15:38:01.916Z,98625.11
2019-03-28T15:40:28.592Z,98631.95
2019-03-28T15:42:55.237Z,98633.05
2019-03-28T15:45:22.163Z,98632.80
2019-03-28T15:47:51.848Z,98637.14
2019-03-28T15:50:17.157Z,98636.28
2019-03-28T15:52:43.819Z,98643.11
2019-03-28T15:55:10.675Z,98646.78
2019-03-28T15:57:37.318Z,98643.84
2019-03-28T16:00:03.937Z,98649.08
2019-03-28T16:02:30.614Z,98643.33
2019-03-28T16:04:57.620Z,98646.38
2019-03-28T16:07:24.724Z,98648.13
2019-03-28T16:09:51.732Z,98643.69
2019-03-28T16:12:18.424Z,98650.84
2019-03-28T16:14:45.404Z,98649.00
2019-03-28T16:17:12.150Z,98650.25
2019-03-28T16:19:40.232Z,98655.38
2019-03-28T16:22:06.910Z,98659.28
2019-03-28T16:24:33.664Z,98660.91
2019-03-28T16:27:00.399Z,98658.56
2019-03-28T16:29:27.135Z,98666.34
2019-03-28T16:31:54.080Z,98666.14
2019-03-28T16:34:20.962Z,98670.25
2019-03-28T16:36:48.058Z,98670.23
2019-03-28T16:39:14.966Z,98667.16
2019-03-28T16:41:41.615Z,98668.17
2019-03-28T16:44:08.268Z,98675.34
2019-03-28T16:46:35.086Z,98675.75
2019-03-28T16:49:02.174Z,98680.14
2019-03-28T16:51:29.862Z,98684.80
2019-03-28T16:53:56.491Z,98689.27
2019-03-28T16:56:23.141Z,98685.89
2019-03-28T16:58:49.817Z,98687.52
2019-03-28T17:01:16.525Z,98689.02
2019-03-28T17:03:43.433Z,98688.79
2019-03-28T17:06:10.879Z,98689.82
2019-03-28T17:08:37.782Z,98695.14
2019-03-28T17:11:04.385Z,98693.66
2019-03-28T17:13:32.304Z,98690.35
2019-03-28T17:15:59.063Z,98695.67
2019-03-28T17:18:25.692Z,98697.42
2019-03-28T17:20:52.709Z,98700.33
2019-03-28T17:23:19.381Z,98704.02
2019-03-28T17:25:45.972Z,98701.81
2019-03-28T17:28:12.865Z,98705.83
2019-03-28T17:30:39.769Z,98700.97
2019-03-28T17:33:06.765Z,98705.34
2019-03-28T17:35:33.725Z,98704.71
2019-03-28T17:38:00.407Z,98705.77
2019-03-28T17:40:27.061Z,98708.70
2019-03-28T17:42:53.743Z,98715.03
2019-03-28T17:45:20.622Z,98717.65
2019-03-28T17:47:47.347Z,98728.78
2019-03-28T17:50:14.523Z,98731.56
2019-03-28T17:52:42.224Z,98727.94
2019-03-28T17:55:09.856Z,98735.64
2019-03-28T17:57:39.607Z,98739.75
2019-03-28T18:03:08.131Z,98741.06
2019-03-28T18:05:24.563Z,98738.77
2019-03-28T18:07:53.126Z,98736.53
2019-03-28T18:10:23.474Z,98740.39
2019-03-28T18:12:50.370Z,98739.80
2019-03-28T18:15:18.068Z,98748.66
2019-03-28T18:17:45.039Z,98751.91
2019-03-28T18:20:12.666Z,98746.67
2019-03-28T18:22:40.576Z,98750.27
2019-03-28T18:25:09.277Z,98758.29
2019-03-28T18:27:36.907Z,98749.04
2019-03-28T18:30:06.290Z,98759.47
2019-03-28T18:32:39.152Z,98755.23
2019-03-28T18:35:05.604Z,98754.45
2019-03-28T18:37:38.280Z,98755.38
2019-03-28T18:40:05.484Z,98755.65
2019-03-28T18:42:33.260Z,98758.58
2019-03-28T18:45:04.186Z,98758.06
2019-03-28T18:47:31.920Z,98762.17
2019-03-28T18:49:58.839Z,98764.49
2019-03-28T18:52:25.552Z,98766.61
2019-03-28T18:54:52.717Z,98768.69
2019-03-28T18:57:20.029Z,98773.69
2019-03-28T18:59:48.437Z,98775.34
2019-03-28T19:02:16.871Z,98779.22
2019-03-28T19:04:48.155Z,98785.72
2019-03-28T19:07:18.913Z,98784.13
2019-03-28T19:09:54.824Z,98783.88
2019-03-28T19:12:17.647Z,98789.97
2019-03-28T19:14:52.562Z,98794.91
2019-03-28T19:17:22.771Z,98792.53
2019-03-28T19:19:51.438Z,98794.98
2019-03-28T19:22:23.293Z,98789.34
2019-03-28T19:24:53.548Z,98793.39
2019-03-28T19:27:21.463Z,98796.38
2019-03-28T19:29:52.332Z,98799.30
2019-03-28T19:32:38.098Z,98796.08
2019-03-28T19:35:05.484Z,98799.16
2019-03-28T19:37:39.820Z,98800.31
2019-03-28T19:40:06.941Z,98802.63
2019-03-28T19:42:37.728Z,98802.23
2019-03-28T19:45:06.136Z,98807.67
2019-03-28T19:47:34.437Z,98806.92
2019-03-28T19:50:07.215Z,98808.70
2019-03-28T19:52:37.163Z,98809.21
2019-03-28T19:55:08.120Z,98810.45
2019-03-28T19:57:35.801Z,98811.58
2019-03-28T20:00:05.003Z,98810.45
2019-03-28T20:02:36.122Z,98809.77
2019-03-28T20:05:04.996Z,98807.58
2019-03-28T20:07:35.240Z,98823.69
2019-03-28T20:10:16.112Z,98824.69
2019-03-28T20:12:40.667Z,98829.92
2019-03-28T20:15:08.222Z,98835.83
2019-03-28T20:17:39.585Z,98827.47
2019-03-28T20:22:33.196Z,98827.92
2019-03-28T20:25:00.942Z,98824.78
2019-03-28T20:27:28.309Z,98831.76
2019-03-28T20:29:55.798Z,98843.97
2019-03-28T20:32:25.171Z,98843.62
2019-03-28T20:40:27.471Z,98846.20
2019-03-28T20:42:55.327Z,98848.70
2019-03-28T20:48:13.654Z,98857.00
2019-03-28T20:50:47.605Z,98860.55
2019-03-28T20:53:16.562Z,98855.52
2019-03-28T20:55:43.199Z,98850.37
2019-03-28T20:58:16.113Z,98852.52
2019-03-28T21:00:45.430Z,98857.46
2019-03-28T21:03:15.928Z,98861.09
2019-03-28T21:05:42.558Z,98867.52
2019-03-28T21:08:09.448Z,98868.26
2019-03-28T21:10:36.904Z,98866.04
2019-03-28T21:13:04.521Z,98868.44
2019-03-28T21:15:34.862Z,98870.20
2019-03-28T21:18:01.997Z,98869.92
2019-03-28T21:20:29.901Z,98874.23
2019-03-28T21:22:57.937Z,98874.58
2019-03-28T21:25:25.574Z,98875.84
2019-03-28T21:27:52.191Z,98879.33
2019-03-28T21:30:20.444Z,98876.34
2019-03-28T21:32:55.200Z,98876.02
2019-03-28T21:35:20.409Z,98883.61
2019-03-28T21:37:47.078Z,98890.57
2019-03-28T21:40:13.846Z,98886.45
2019-03-28T21:42:40.578Z,98884.12
2019-03-28T21:45:08.254Z,98882.45
2019-03-28T21:47:36.785Z,98884.78
2019-03-28T21:50:03.391Z,98882.61
2019-03-28T21:52:29.978Z,98886.42
2019-03-28T21:54:57.758Z,98879.80
2019-03-28T21:57:25.569Z,98896.20
2019-03-28T21:59:53.772Z,98889.97
2019-03-28T22:02:20.731Z,98895.05
2019-03-28T22:04:48.403Z,98894.06
2019-03-28T22:07:15.448Z,98889.56
2019-03-28T22:09:42.260Z,98893.38
2019-03-28T22:12:10.583Z,98888.24
2019-03-28T22:14:37.277Z,98891.11
2019-03-28T22:17:03.931Z,98893.34
2019-03-28T22:19:30.802Z,98892.69
2019-03-28T22:24:43.143Z,98895.59
2019-03-28T22:27:09.774Z,98891.53
2019-03-28T22:29:36.710Z,98898.64
2019-03-28T22:32:04.095Z,98893.34
2019-03-28T22:34:30.845Z,98898.75
2019-03-28T22:36:59.970Z,98899.59
2019-03-28T22:39:26.021Z,98897.17
2019-03-28T22:41:52.961Z,98902.47
2019-03-28T22:44:19.583Z,98893.19
2019-03-28T22:46:46.468Z,98888.52
2019-03-28T22:49:13.077Z,98884.55
2019-03-28T22:51:39.715Z,98880.92
2019-03-28T22:54:06.623Z,98884.58
2019-03-28T22:56:33.245Z,98879.36
2019-03-28T22:59:00.854Z,98880.70
2019-03-28T23:01:27.502Z,98874.58
2019-03-28T23:03:54.211Z,98870.11
2019-03-28T23:06:21.084Z,98867.31
2019-03-28T23:08:47.711Z,98875.42
2019-03-28T23:11:14.503Z,98876.75
2019-03-28T23:13:41.135Z,98875.26
2019-03-28T23:16:07.743Z,98873.91
2019-03-28T23:18:34.550Z,98871.07
2019-03-28T23:21:01.193Z,98882.03
2019-03-28T23:23:27.786Z,98889.27
2019-03-28T23:25:54.488Z,98884.50
2019-03-28T23:28:21.117Z,98891.31
2019-03-28T23:30:48.018Z,98889.96
2019-03-28T23:33:14.830Z,98886.70
2019-03-28T23:35:41.617Z,98893.27
2019-03-28T23:38:08.313Z,98894.77
2019-03-28T23:40:34.997Z,98894.09
2019-03-28T23:43:01.873Z,98903.20
2019-03-28T23:45:28.488Z,98902.20
2019-03-28T23:47:55.888Z,98907.27
2019-03-28T23:50:22.577Z,98900.81
2019-03-28T23:52:49.431Z,98899.67
2019-03-28T23:55:16.093Z,98894.06
2019-03-28T23:57:42.703Z,98897.50
